• Join FlightAware (Why Join?)
  • Login
  • US Flag 
05:14AM EST


 

Airport Tracker/Info


-or-


 

Live Flight TrackerFlight Track Log ✈ C-GEJD ✈ 01-Dec-2013 ✈ MDPC / PUJ - CYUL

Flight Track Log - Related Links

Times and Time Zones

All times are in EST time to prevent confusion due to time zone crossing. See the C-GEJD flight status page for this flight to view local times or setup timezone preferences in your user account.

Time Position Orientation Groundspeed Altitude Reporting Facility
EST Latitude Longitude Course Direction KTS MPH feet Rate Location/Type
01:42AM 21.1550 -70.2947 North 438 504 44,500  Level Miami Center
01:43AM 21.2756 -70.2867 North 438 504 44,900 240 Climbing Miami Center
01:44AM 21.3961 -70.2786 North 438 504 45,000  Climbing Miami Center
01:45AM 21.5167 -70.2725 North 438 504 45,000  Level Miami Center
01:46AM 21.6394 -70.2667 North 438 504 45,000  Level Miami Center
01:47AM 21.7661 -70.2558 North 438 504 45,000  Level Miami Center
01:48AM 21.8869 -70.2497 North 438 504 45,000  Level Miami Center
01:49AM 22.0117 -70.2414 North 438 504 45,000  Level Miami Center
01:50AM 22.1364 -70.2350 North 438 504 45,000  Level Miami Center
01:51AM 22.2572 -70.2267 North 438 504 45,000  Level Miami Center
01:52AM 22.3797 -70.2183 North 438 504 45,000  Level Miami Center
01:53AM 22.5025 -70.2122 North 438 504 45,000  Level Miami Center
01:54AM 22.6231 -70.2036 North 438 504 45,000  Level Miami Center
01:55AM 22.7458 -70.1975 North 438 504 45,000  Level Miami Center
01:56AM 22.8664 -70.1867 North 438 504 45,000  Level Miami Center
01:57AM 22.9933 -70.1803 North 438 504 45,000  Level Miami Center
01:58AM 23.1164 -70.1761 North 438 504 45,000  Level Miami Center
01:59AM 23.2431 -70.1650 North 444 511 45,000  Level Miami Center
02:00AM 23.3636 -70.1564 North 444 511 45,000  Level Miami Center
02:01AM 23.4883 -70.1453 North 444 511 45,000  Level Miami Center
02:02AM 23.6133 -70.1433 North 439 505 45,000  Level Miami Center
02:03AM 23.7383 -70.1342 North 439 505 45,000  Level Miami Center
02:04AM 23.8592 -70.1325 North 439 505 45,000  Level Miami Center
02:05AM 23.9817 -70.1192 North 439 505 45,000  Level Miami Center
02:06AM 24.1044 -70.1147 North 439 505 45,000  Level Miami Center
02:07AM 24.2250 -70.1036 North 439 505 45,000  Level Miami Center
02:08AM 24.3456 -70.0947 North 439 505 45,000  Level Miami Center
02:09AM 24.4664 -70.0858 North 434 499 45,000  Level Miami Center
02:10AM 24.5892 -70.0814 North 434 499 45,000  Level Miami Center
02:11AM 24.7033 -70.0661 North 434 499 45,000  Level Miami Center
02:12AM 24.8286 -70.0683 359° North 434 499 45,000  Level Miami Center
02:14AM 25.0816 -70.0688 348° North  Level FlightAware Approximate
02:17AM 25.0000 -70.0500 348° North 420 483 45,000  Level New York Oceanic (ODAPS)
02:21AM 25.9960 -70.2811 348° North  Level FlightAware Approximate
02:22AM 26.1266 -70.3117 348° North  Level FlightAware Approximate
02:23AM 26.1477 -70.3179 348° North 420 483 45,000  Level FlightAware Transoceanic
02:24AM 26.2624 -70.3450 348° North 420 483 45,000  Level FlightAware Transoceanic
02:25AM 26.3772 -70.3721 348° North 420 483 45,000  Level FlightAware Transoceanic
02:26AM 26.4919 -70.3993 348° North 420 483 45,000  Level FlightAware Transoceanic
02:27AM 26.6066 -70.4265 348° North 420 483 45,000  Level FlightAware Transoceanic
02:28AM 26.7213 -70.4538 348° North 420 483 45,000  Level FlightAware Transoceanic
02:29AM 26.8361 -70.4812 348° North 420 483 45,000  Level FlightAware Transoceanic
02:30AM 26.9508 -70.5086 348° North 420 483 45,000  Level FlightAware Transoceanic
02:31AM 27.0655 -70.5360 348° North 420 483 45,000  Level FlightAware Transoceanic
02:32AM 27.1802 -70.5636 348° North 420 483 45,000  Level FlightAware Transoceanic
02:33AM 27.2949 -70.5911 348° North 420 483 45,000  Level FlightAware Transoceanic
02:34AM 27.4096 -70.6188 348° North 420 483 45,000  Level FlightAware Transoceanic
02:35AM 27.5242 -70.6465 348° North 420 483 45,000  Level FlightAware Transoceanic
02:36AM 27.6389 -70.6742 348° North 420 483 45,000  Level FlightAware Transoceanic
02:37AM 27.7536 -70.7020 348° North 420 483 45,000  Level FlightAware Transoceanic
02:38AM 27.8683 -70.7299 348° North 420 483 45,000  Level FlightAware Transoceanic
02:39AM 27.9829 -70.7578 348° North 420 483 45,000  Level FlightAware Transoceanic
02:40AM 28.0976 -70.7858 348° North 420 483 45,000  Level FlightAware Transoceanic
02:41AM 28.2122 -70.8138 348° North 420 483 45,000  Level FlightAware Transoceanic
02:42AM 28.3269 -70.8419 348° North 420 483 45,000  Level FlightAware Transoceanic
02:43AM 28.4415 -70.8701 348° North 420 483 45,000  Level FlightAware Transoceanic
02:44AM 28.5561 -70.8983 348° North 420 483 45,000  Level FlightAware Transoceanic
02:45AM 28.6708 -70.9266 348° North 420 483 45,000  Level FlightAware Transoceanic
02:46AM 28.7854 -70.9549 348° North 420 483 45,000  Level FlightAware Transoceanic
02:47AM 28.9000 -70.9833 348° North 420 483 45,000  Level FlightAware Transoceanic
02:48AM 29.0131 -71.0111 348° North 420 483 45,000  Level FlightAware Transoceanic
02:49AM 29.1262 -71.0389 348° North 420 483 45,000  Level FlightAware Transoceanic
02:49AM 28.9000 -70.9833 348° North 397 457 45,000  Level New York Oceanic (ODAPS)
02:50AM 29.2393 -71.0668 348° North 420 483 45,000  Level FlightAware Transoceanic
02:51AM 29.3524 -71.0948 348° North 420 483 45,000  Level FlightAware Transoceanic
02:52AM 29.4655 -71.1228 348° North 420 483 45,000  Level FlightAware Transoceanic
02:53AM 29.5785 -71.1509 348° North 420 483 45,000  Level FlightAware Transoceanic
02:54AM 29.6916 -71.1791 348° North 420 483 45,000  Level FlightAware Transoceanic
02:55AM 29.7662 -71.1977 348° North 397 457 45,000  Level FlightAware Transoceanic
02:56AM 29.8744 -71.2247 348° North 397 457 45,000  Level FlightAware Transoceanic
02:57AM 29.9827 -71.2518 348° North 397 457 45,000  Level FlightAware Transoceanic
02:58AM 30.0909 -71.2790 348° North 397 457 45,000  Level FlightAware Transoceanic
02:59AM 30.1991 -71.3063 348° North 397 457 45,000  Level FlightAware Transoceanic
03:00AM 30.3073 -71.3335 348° North 397 457 45,000  Level FlightAware Transoceanic
03:01AM 30.4156 -71.3609 348° North 397 457 45,000  Level FlightAware Transoceanic
03:02AM 30.5238 -71.3883 348° North 397 457 45,000  Level FlightAware Transoceanic
03:03AM 30.6320 -71.4158 348° North 397 457 45,000  Level FlightAware Transoceanic
03:04AM 30.7402 -71.4433 348° North 397 457 45,000  Level FlightAware Transoceanic
03:05AM 30.8484 -71.4709 348° North 397 457 45,000  Level FlightAware Transoceanic
03:06AM 30.9566 -71.4986 348° North 397 457 45,000  Level FlightAware Transoceanic
03:07AM 31.0648 -71.5263 348° North 397 457 45,000  Level FlightAware Transoceanic
03:08AM 31.1729 -71.5541 348° North 397 457 45,000  Level FlightAware Transoceanic
03:09AM 31.2811 -71.5819 348° North 397 457 45,000  Level FlightAware Transoceanic
03:10AM 31.3893 -71.6098 348° North 397 457 45,000  Level FlightAware Transoceanic
03:11AM 31.4974 -71.6378 348° North 397 457 45,000  Level FlightAware Transoceanic
03:12AM 31.6056 -71.6658 348° North 397 457 45,000  Level FlightAware Transoceanic
03:13AM 31.7137 -71.6939 348° North 397 457 45,000  Level FlightAware Transoceanic
03:14AM 31.8219 -71.7221 348° North 397 457 45,000  Level FlightAware Transoceanic
03:15AM 31.9300 -71.7504 347° North 397 457 45,000  Level FlightAware Transoceanic
03:16AM 32.0381 -71.7786 347° North 397 457 45,000  Level FlightAware Transoceanic
03:17AM 32.1463 -71.8070 347° North 397 457 45,000  Level FlightAware Transoceanic
03:18AM 32.2544 -71.8355 347° North 397 457 45,000  Level FlightAware Transoceanic
03:19AM 32.3625 -71.8640 347° North 397 457 45,000  Level FlightAware Transoceanic
03:20AM 32.4706 -71.8925 347° North 397 457 45,000  Level FlightAware Transoceanic
03:21AM 32.5787 -71.9212 347° North 397 457 45,000  Level FlightAware Transoceanic
03:22AM 32.6868 -71.9499 347° North 397 457 45,000  Level FlightAware Transoceanic
03:23AM 32.7949 -71.9787 347° North 397 457 45,000  Level FlightAware Transoceanic
03:24AM 32.9029 -72.0075 347° North 397 457 45,000  Level FlightAware Transoceanic
03:25AM 33.0110 -72.0365 347° North 397 457 45,000  Level FlightAware Transoceanic
03:26AM 33.1191 -72.0654 347° North 397 457 45,000  Level FlightAware Transoceanic
03:27AM 33.2271 -72.0945 347° North 397 457 45,000  Level FlightAware Transoceanic
03:28AM 33.3352 -72.1236 347° North 397 457 45,000  Level FlightAware Transoceanic
03:29AM 33.4432 -72.1528 347° North 397 457 45,000  Level FlightAware Transoceanic
03:30AM 33.5513 -72.1821 347° North 397 457 45,000  Level FlightAware Transoceanic
03:31AM 33.6593 -72.2115 347° North 397 457 45,000  Level FlightAware Transoceanic
03:32AM 33.7673 -72.2409 347° North 397 457 45,000  Level FlightAware Transoceanic
03:33AM 33.8753 -72.2704 347° North 397 457 45,000  Level FlightAware Transoceanic
03:34AM 33.9833 -72.3000 355° North 397 457 45,000  Level FlightAware Transoceanic
03:34AM 34.2325 -72.3242 355° North 442 509 45,000  Level New York Center
03:35AM 34.1019 -72.3128 355° North 397 457 45,000  Level FlightAware Transoceanic
03:35AM 34.3389 -72.3286 358° North 432 497 45,000  Level New York Center
03:36AM 34.2204 -72.3257 355° North 397 457 45,000  Level FlightAware Transoceanic
03:36AM 34.4533 -72.3386 356° North 422 486 45,000  Level New York Center
03:37AM 34.3389 -72.3386 355° North 397 457 45,000  Level FlightAware Transoceanic
03:37AM 34.5747 -72.3081 12° North 422 486 45,000  Level New York Center
03:38AM 34.4574 -72.3515 355° North 397 457 45,000  Level FlightAware Transoceanic
03:38AM 34.6803 -72.2194 35° Northeast 410 472 45,000  Level New York Center
03:39AM 34.5759 -72.3644 355° North 397 457 45,000  Level FlightAware Transoceanic
03:39AM 34.7958 -72.1483 27° Northeast 439 505 45,000  Level New York Center
03:40AM 34.9192 -72.1353 North 439 505 45,000  Level New York Center
03:41AM 35.0339 -72.1422 357° North 428 493 45,000  Level New York Center
03:42AM 35.1547 -72.1444 359° North 428 493 45,000 -60 Level New York Center
03:43AM 35.2736 -72.1467 359° North 416 479 44,900  Descending New York Center
03:44AM 35.3967 -72.1436 North 423 487 45,000  Climbing New York Center
03:45AM 35.5094 -72.1483 358° North 418 481 45,000  Level New York Center
03:46AM 35.6325 -72.1481 360° North 418 481 45,000  Level New York Center
03:47AM 35.7492 -72.1528 358° North 417 480 45,000  Level New York Center
03:48AM 35.8764 -72.1497 North 427 491 45,000  Level New York Center
03:49AM 35.9933 -72.1547 358° North 427 491 45,000  Level New York Center
03:50AM 36.1164 -72.1542 360° North 427 491 45,000  Level New York Center
03:51AM 36.2372 -72.1564 359° North 427 491 45,000  Level New York Center
03:52AM 36.3606 -72.1536 North 433 498 45,000  Level New York Center
03:53AM 36.4772 -72.1583 358° North 438 504 45,000  Level New York Center
03:54AM 36.5983 -72.1606 359° North 431 496 45,000  Level New York Center
03:55AM 36.7128 -72.1681 357° North 420 483 45,000  Level New York Center
03:56AM 36.8397 -72.1911 352° North 427 491 45,000  Level New York Center
03:57AM 36.9586 -72.2117 352° North 427 491 45,000  Level New York Center
03:58AM 37.0792 -72.2297 353° North 427 491 45,000  Level New York Center
03:59AM 37.2042 -72.2503 353° North 434 499 45,000  Level New York Center
04:00AM 37.3208 -72.2683 353° North 427 491 45,000  Level New York Center
04:01AM 37.4414 -72.2867 353° North 423 487 45,000  Level New York Center
04:02AM 37.5622 -72.3047 353° North 430 495 45,000  Level New York Center
04:03AM 37.6603 -72.3094 358° North 421 484 45,000  Level New York Center
04:04AM 37.7808 -72.3331 351° North 421 484 45,000  Level New York Center
04:05AM 37.9017 -72.3464 355° North 427 491 45,000  Level New York Center
04:06AM 38.0225 -72.3675 352° North 432 497 45,000  Level New York Center
04:07AM 38.1431 -72.3886 352° North 432 497 45,000  Level New York Center
04:08AM 38.2617 -72.4072 353° North 432 497 45,000  Level New York Center
04:09AM 38.3825 -72.4258 353° North 432 497 45,000  Level New York Center
04:10AM 38.4989 -72.4417 354° North 427 491 45,000  Level New York Center
04:11AM 38.6175 -72.4631 352° North 427 491 45,000  Level New York Center
04:12AM 38.7339 -72.4872 351° North 427 491 45,000  Level New York Center
04:13AM 38.8506 -72.5008 355° North 427 491 45,000  Level New York Center
04:14AM 38.9669 -72.5222 352° North 427 491 45,000  Level New York Center
04:15AM 39.0833 -72.5414 353° North 427 491 45,000  Level New York Center
04:16AM 39.2000 -72.5603 353° North 422 486 45,000  Level New York Center
04:17AM 39.3164 -72.5794 353° North 422 486 45,000  Level New York Center
04:18AM 39.4350 -72.5958 354° North 428 493 45,000  Level New York Center
04:19AM 39.5533 -72.6178 352° North 428 493 45,000  Level New York Center
04:20AM 39.6739 -72.6372 353° North 428 493 45,000  Level New York Center
04:22AM 39.9153 -72.6783 353° North 434 499 45,000  Level Boston Center
04:23AM 40.0367 -72.6986 353° North 437 503 45,000  Level Boston Center
04:24AM 40.1578 -72.7178 353° North 438 504 45,000  Level Boston Center
04:25AM 40.2839 -72.7386 353° North 437 503 45,000  Level Boston Center
04:26AM 40.4047 -72.7586 353° North 437 503 45,000  Level Boston Center
04:27AM 40.5267 -72.7797 353° North 440 506 45,000  Level Boston Center
04:28AM 40.6481 -72.7997 353° North 439 505 45,000  Level Boston Center
04:29AM 40.7731 -72.8206 353° North 439 505 45,000  Level Boston Center
04:30AM 40.8942 -72.8431 352° North 440 506 45,000  Level Boston Center
04:31AM 41.0158 -72.8647 352° North 441 507 45,000  Level Boston Center
04:32AM 41.1386 -72.8836 353° North 438 504 45,000  Level Boston Center
04:33AM 41.2553 -72.9011 354° North 433 498 45,000  Level Boston Center
04:34AM 41.3775 -72.9231 352° North 432 497 45,000  Level Boston Center
04:35AM 41.4981 -72.9444 352° North 436 502 45,000  Level Boston Center
04:36AM 41.6150 -72.9642 353° North 436 502 45,000  Level Boston Center
04:37AM 41.7350 -72.9858 352° North 436 502 45,000  Level Boston Center
04:38AM 41.8550 -73.0053 353° North 435 501 45,000  Level Boston Center
04:39AM 41.9758 -73.0267 353° North 438 504 45,000  Level Boston Center
04:40AM 42.0953 -73.0478 353° North 436 502 45,000  Level Boston Center
04:41AM 42.2186 -73.0697 352° North 436 502 45,000  Level Boston Center
04:42AM 42.3400 -73.0908 353° North 442 509 45,000  Level Boston Center
04:43AM 42.4639 -73.1106 353° North 430 495 45,000  Level Boston Center
04:44AM 42.5642 -73.1294 352° North 428 493 45,000  Level Boston Center
04:45AM 42.6869 -73.1519 352° North 438 504 45,000  Level Boston Center
04:46AM 42.8089 -73.1739 352° North 440 506 45,000  Level Boston Center
04:47AM 42.9300 -73.1958 352° North 439 505 45,000  Level Boston Center
04:48AM 43.0506 -73.2183 352° North 439 505 45,000  Level Boston Center
04:49AM 43.1711 -73.2403 352° North 437 503 45,000  Level Boston Center
04:50AM 43.2911 -73.2628 352° North 436 502 45,000  Level Boston Center
04:51AM 43.4281 -73.2892 352° North 436 502 45,000  Level Boston Center
04:52AM 43.5481 -73.3094 353° North 434 499 45,000  Level Boston Center
04:53AM 43.6664 -73.3319 352° North 431 496 45,000 -1,200 Level Boston Center
04:54AM 43.7875 -73.3544 352° North 437 503 42,600 -2,700 Descending Boston Center
04:55AM 43.9061 -73.3764 352° North 432 497 39,700 -2,880 Descending Boston Center
04:56AM 44.0264 -73.3989 352° North 434 499 36,800 -2,940 Descending Boston Center
04:57AM 44.1425 -73.4208 352° North 423 487 33,900 -2,940 Descending Boston Center
04:58AM 44.2556 -73.4439 352° North 413 475 31,100 -2,880 Descending Boston Center
04:59AM 44.3672 -73.4972 341° North 419 482 28,200 -2,940 Descending Boston Center
05:00AM 44.4778 -73.5517 341° North 417 480 25,300 -3,000 Descending Boston Center
05:01AM 44.5925 -73.6061 341° North 429 494 22,300 -2,940 Descending Boston Center
05:02AM 44.7022 -73.6575 342° North 414 476 19,500 -2,520 Descending Boston Center
05:03AM 44.8044 -73.7056 342° North 387 445 17,200 -2,400 Descending Boston Center
05:04AM 44.9003 -73.7503 342° North 362 417 14,700 -2,460 Descending Boston Center
05:05AM 44.9864 -73.7914 341° North 326 375 12,400 -2,460 Descending Boston Center
05:07AM 45.0833 -73.8333 343° North 290 334 8,900 -1,980 Descending Montreal Center
05:08AM 45.1500 -73.8833 332° Northwest 250 288 7,700 -1,620 Descending Montreal Center
05:09AM 45.2167 -73.9000 350° North 260 299 5,700 -1,860 Descending Montreal Center
05:10AM 45.2833 -73.9000 360° North 260 299 4,000 -1,380 Descending Montreal Center
05:11AM 45.3500 -73.8500 28° Northeast 230 265 3,000 -1,080 Descending Montreal Center
05:12AM 45.3833 -73.8000 46° Northeast 200 230 1,900 -1,140 Descending Montreal Center
05:13AM 45.4167 -73.7667 35° Northeast 140 161 800 -600 Descending Montreal Center
05:15AM 45.4667 -73.7167 35° Northeast 30 35 100 -240 Descending Montreal Center
05:16AM 45.4667 -73.7000 90° East 10 12 100  Level Montreal Center